Shartlesville, Pennsylvania
Current Conditions -  °F | °C
As of 1:54 AM on Sunday 26 Oct 2014 (Local Time) from KRDG Reporting Station
Overcast Overcast  
Wind Chill: 61°   Ceiling: 9500
Heat Index: 61°   Visibility: 10mi
Dew Point: 46°   Wind: 3mph
Humidity: 58%   Direction: 230°SW
Pressure: 29.6"   Gusts: NA
Location:  40.51°N, 76.1°W
Report Text: KRDG 260554Z AUTO 23003KT 10SM OVC095 16/08 A2960 RMK AO2 SLP026 T01610078 10178 20144 58007
Loading
Personal Weather Stations






























Interactive Weather Map
Tropical Storm Tracking
New forecast layout! Learn more

10-Day Weather Forecast

Advertisements
Track Severe Weather on mobile